Time;durP1;ratioP1;P1;durP2;ratioP2;P2;SDS_P1;SDS_P2;PMS_P1;PMS_P2;Temp;Humidity;BMP_temperature;BMP_pressure;BME280_temperature;BME280_humidity;BME280_pressure;Samples;Min_cycle;Max_cycle;Signal;HPM_P1;HPM_P2
2022/01/04 00:00:23;;;;;;;47.10;22.15;;;5.30;72.90;;;;;;5050874;28;20049;-72
2022/01/04 00:02:49;;;;;;;39.33;19.02;;;5.30;73.60;;;;;;5004764;28;20046;-72
2022/01/04 00:05:15;;;;;;;38.00;18.15;;;5.40;73.60;;;;;;5006235;28;20033;-73
2022/01/04 00:07:42;;;;;;;38.20;17.75;;;5.40;73.40;;;;;;5011575;28;20030;-73
2022/01/04 00:10:08;;;;;;;37.53;18.63;;;5.40;73.30;;;;;;5042266;28;20034;-69
2022/01/04 00:15:21;;;;;;;54.40;27.30;;;5.40;73.30;;;;;;5011494;28;20053;-73
2022/01/04 00:17:47;;;;;;;;;;;5.40;73.30;;;;;;5042346;28;20045;-71
2022/01/04 00:20:13;;;;;;;61.53;24.65;;;5.40;74.10;;;;;;5004807;28;20317;-73
2022/01/04 00:22:39;;;;;;;;;;;5.40;73.10;;;;;;5042021;28;20033;-73
2022/01/04 00:25:07;;;;;;;50.95;23.70;;;5.50;73.10;;;;;;5004576;28;20357;-73
2022/01/04 00:27:33;;;;;;;45.85;23.60;;;5.50;73.00;;;;;;5013174;28;20057;-72
2022/01/04 00:29:59;;;;;;;;;;;5.50;73.20;;;;;;5046639;28;20088;-70
2022/01/04 00:32:25;;;;;;;37.75;20.48;;;5.50;73.20;;;;;;5010463;28;20301;-72
2022/01/04 00:34:52;;;;;;;46.25;23.58;;;5.50;73.20;;;;;;5009918;28;20042;-73
2022/01/04 00:37:18;;;;;;;42.22;20.35;;;5.50;73.30;;;;;;5025457;28;20120;-74
2022/01/04 00:39:44;;;;;;;51.28;24.30;;;5.50;73.40;;;;;;5029077;28;20515;-71
2022/01/04 00:42:10;;;;;;;60.25;26.60;;;5.50;73.60;;;;;;5013748;28;20046;-70
2022/01/04 00:44:36;;;;;;;81.55;35.25;;;5.50;73.80;;;;;;5045254;28;20042;-70
2022/01/04 00:47:03;;;;;;;58.70;25.98;;;5.40;73.70;;;;;;5045521;28;20042;-72
2022/01/04 00:49:29;;;;;;;49.60;22.65;;;5.40;73.20;;;;;;5012837;28;20042;-73
2022/01/04 00:51:55;;;;;;;48.90;24.90;;;5.40;73.90;;;;;;5013601;28;20046;-72
2022/01/04 00:54:22;;;;;;;48.40;22.08;;;5.30;73.90;;;;;;5028630;28;20122;-71
2022/01/04 00:56:49;;;;;;;42.10;21.20;;;5.40;73.20;;;;;;5045290;28;20047;-70
2022/01/04 00:59:17;;;;;;;42.03;21.80;;;5.40;73.60;;;;;;5045117;28;20050;-70
2022/01/04 01:01:43;;;;;;;43.70;21.25;;;5.40;73.50;;;;;;5028412;28;20069;-70
2022/01/04 01:04:10;;;;;;;47.50;21.38;;;5.50;73.00;;;;;;5045605;28;20050;-72
2022/01/04 01:06:36;;;;;;;44.85;23.98;;;5.60;72.80;;;;;;5027989;28;20041;-73
2022/01/04 01:09:04;;;;;;;52.03;26.17;;;5.60;72.70;;;;;;5013152;28;20037;-71
2022/01/04 01:11:30;;;;;;;51.08;22.67;;;5.60;73.00;;;;;;5045016;28;20056;-72
2022/01/04 01:13:56;;;;;;;39.28;18.90;;;5.70;73.10;;;;;;5013365;28;20038;-73
2022/01/04 01:16:23;;;;;;;35.20;19.50;;;5.70;73.20;;;;;;5045400;28;20072;-72
2022/01/04 01:18:49;;;;;;;43.55;20.75;;;5.70;73.20;;;;;;5028339;28;20073;-70
2022/01/04 01:21:15;;;;;;;46.38;23.10;;;5.70;73.30;;;;;;5012914;28;20038;-70
2022/01/04 01:23:41;;;;;;;;;;;5.70;73.40;;;;;;5045596;28;20046;-70
2022/01/04 01:26:09;;;;;;;66.20;30.65;;;5.70;73.20;;;;;;5044686;28;20004;-73
2022/01/04 01:28:36;;;;;;;67.65;30.88;;;5.80;73.00;;;;;;5045048;28;20089;-73
2022/01/04 01:31:03;;;;;;;70.72;30.52;;;5.80;73.20;;;;;;5011723;28;20042;-72
2022/01/04 01:33:29;;;;;;;68.90;32.28;;;5.80;73.50;;;;;;5044620;28;20511;-72
2022/01/04 01:35:57;;;;;;;73.53;33.33;;;5.80;73.60;;;;;;5044577;28;20038;-73
2022/01/04 01:38:24;;;;;;;75.75;34.97;;;5.80;73.50;;;;;;5044421;28;20034;-72
2022/01/04 01:40:51;;;;;;;79.40;35.25;;;5.80;73.40;;;;;;5027356;28;20254;-72
2022/01/04 01:43:18;;;;;;;59.92;29.70;;;5.80;72.90;;;;;;5044873;28;20026;-73
2022/01/04 01:45:45;;;;;;;58.33;28.45;;;5.70;73.70;;;;;;5044546;28;20042;-73
2022/01/04 01:48:12;;;;;;;54.10;27.35;;;5.80;73.70;;;;;;5044594;28;20551;-73
2022/01/04 01:50:39;;;;;;;59.13;29.63;;;5.80;73.60;;;;;;5044124;28;20042;-73
2022/01/04 01:53:05;;;;;;;77.82;33.42;;;5.80;73.50;;;;;;5011019;28;20030;-72
2022/01/04 01:55:32;;;;;;;;;;;5.80;73.70;;;;;;5011990;28;20072;-72
2022/01/04 01:57:59;;;;;;;70.07;31.45;;;5.80;73.60;;;;;;5044375;28;20349;-74
2022/01/04 02:00:28;;;;;;;63.47;32.85;;;5.70;73.70;;;;;;5012234;28;20044;-73
2022/01/04 02:02:55;;;;;;;59.08;29.83;;;5.70;73.80;;;;;;5012121;28;20463;-72
2022/01/04 02:05:22;;;;;;;68.28;33.17;;;5.60;73.60;;;;;;5012097;28;20241;-73
2022/01/04 02:07:48;;;;;;;61.35;29.23;;;5.70;73.80;;;;;;5011561;28;20048;-73
2022/01/04 02:10:14;;;;;;;57.97;27.35;;;5.70;74.30;;;;;;5011048;28;20060;-71
2022/01/04 02:12:46;;;;;;;56.25;27.45;;;5.70;74.20;;;;;;5044016;28;20098;-71
2022/01/04 02:15:33;;;;;;;61.13;30.48;;;5.70;73.90;;;;;;5012170;28;20084;-71
2022/01/04 02:18:00;;;;;;;60.83;26.92;;;5.70;74.10;;;;;;5027327;28;20048;-70
2022/01/04 02:20:26;;;;;;;56.45;29.02;;;5.70;74.10;;;;;;5043773;28;20469;-72
2022/01/04 02:22:54;;;;;;;56.10;28.73;;;5.70;74.20;;;;;;5026695;28;20034;-73
2022/01/04 02:25:20;;;;;;;66.03;30.25;;;5.70;74.20;;;;;;5012473;28;20117;-71
2022/01/04 02:27:47;;;;;;;60.13;29.23;;;5.70;75.00;;;;;;5011813;28;20038;-70
2022/01/04 02:30:17;;;;;;;59.58;30.10;;;5.70;73.50;;;;;;5011679;28;20042;-71
2022/01/04 02:32:46;;;;;;;58.53;30.83;;;5.70;74.00;;;;;;5026961;28;20125;-72
2022/01/04 02:35:14;;;;;;;88.90;40.92;;;5.70;74.00;;;;;;5010180;28;20041;-70
2022/01/04 02:37:41;;;;;;;104.22;45.53;;;5.70;74.20;;;;;;5043217;28;20057;-73
2022/01/04 02:40:07;;;;;;;;;;;5.70;74.40;;;;;;5011189;28;20065;-73
2022/01/04 02:42:34;;;;;;;102.30;44.47;;;5.70;74.00;;;;;;5010232;28;19926;-71
2022/01/04 02:45:00;;;;;;;82.25;37.50;;;5.70;74.00;;;;;;5011629;28;20041;-73
2022/01/04 02:47:28;;;;;;;95.70;45.45;;;5.70;73.50;;;;;;5043450;28;20065;-70
2022/01/04 02:49:55;;;;;;;91.03;41.35;;;5.70;74.00;;;;;;5042830;28;20037;-70
2022/01/04 02:52:22;;;;;;;98.68;42.58;;;5.80;74.00;;;;;;5043900;28;20272;-71
2022/01/04 02:54:48;;;;;;;96.68;44.20;;;5.80;73.60;;;;;;5042938;28;20069;-71
2022/01/04 02:57:14;;;;;;;106.05;44.40;;;5.70;73.60;;;;;;5043126;28;20104;-70
2022/01/04 02:59:40;;;;;;;72.72;35.80;;;5.80;74.30;;;;;;5042675;28;20085;-70
2022/01/04 03:02:06;;;;;;;80.88;34.03;;;5.80;74.30;;;;;;5010625;28;20055;-71
2022/01/04 03:04:32;;;;;;;71.05;33.63;;;5.70;74.40;;;;;;5043162;28;20042;-71
2022/01/04 03:06:59;;;;;;;71.13;31.95;;;5.80;74.50;;;;;;5011314;28;20133;-70
2022/01/04 03:09:25;;;;;;;55.47;27.13;;;5.70;74.60;;;;;;5010830;28;20034;-70
2022/01/04 03:11:51;;;;;;;55.25;28.42;;;5.60;74.70;;;;;;5042887;28;20042;-73
2022/01/04 03:14:17;;;;;;;58.88;29.05;;;5.50;74.90;;;;;;5042721;28;20030;-72
2022/01/04 03:16:43;;;;;;;58.33;28.13;;;5.50;75.00;;;;;;5042776;28;20040;-72
2022/01/04 03:19:10;;;;;;;61.95;28.35;;;5.40;75.00;;;;;;5009766;28;20105;-73
2022/01/04 03:21:40;;;;;;;63.80;28.25;;;5.40;75.00;;;;;;5009239;28;20052;-71
2022/01/04 03:24:10;;;;;;;56.83;27.15;;;5.40;74.80;;;;;;5042238;28;20523;-73
2022/01/04 03:26:37;;;;;;;57.78;28.02;;;5.40;74.80;;;;;;5042400;28;20045;-70
2022/01/04 03:29:05;;;;;;;68.35;30.65;;;5.40;74.90;;;;;;5042373;28;20029;-72
2022/01/04 03:31:32;;;;;;;69.13;31.33;;;5.40;74.60;;;;;;5042715;28;20125;-72
2022/01/04 03:34:00;;;;;;;63.47;31.33;;;5.30;74.20;;;;;;5042457;28;20454;-72
2022/01/04 03:36:26;;;;;;;71.57;34.95;;;5.30;74.80;;;;;;5025576;28;20550;-73
2022/01/04 03:38:55;;;;;;;78.78;38.72;;;5.30;74.30;;;;;;5042238;28;20038;-73
2022/01/04 03:41:24;;;;;;;72.53;36.90;;;5.30;74.90;;;;;;5042069;28;20621;-73
2022/01/04 03:43:51;;;;;;;77.47;35.90;;;5.40;74.80;;;;;;5009142;28;20032;-73
2022/01/04 03:46:19;;;;;;;67.90;33.95;;;5.40;74.60;;;;;;5025682;28;20117;-72
2022/01/04 03:48:46;;;;;;;75.05;33.63;;;5.50;74.60;;;;;;5042171;28;20117;-73
2022/01/04 03:51:12;;;;;;;67.03;33.42;;;5.50;74.00;;;;;;5010463;28;20049;-70
2022/01/04 03:53:39;;;;;;;66.45;34.13;;;5.50;74.40;;;;;;5041793;28;20041;-71
2022/01/04 03:56:05;;;;;;;68.75;34.33;;;5.60;74.60;;;;;;5007363;28;20038;-70
2022/01/04 03:58:32;;;;;;;68.50;32.75;;;5.60;74.00;;;;;;5025670;28;20053;-71
2022/01/04 04:00:58;;;;;;;64.45;31.77;;;5.60;74.70;;;;;;5010292;28;20574;-70
2022/01/04 04:03:24;;;;;;;;;;;5.50;74.70;;;;;;5010976;28;20080;-70
2022/01/04 04:05:50;;;;;;;50.15;22.45;;;5.50;74.80;;;;;;5008900;28;20263;-71
2022/01/04 04:08:17;;;;;;;48.75;23.63;;;5.50;74.70;;;;;;5010015;28;20038;-71
2022/01/04 04:10:43;;;;;;;53.40;24.05;;;5.40;74.80;;;;;;5010201;28;20029;-70
2022/01/04 04:13:09;;;;;;;43.90;23.85;;;5.40;74.90;;;;;;5024846;28;20022;-71
2022/01/04 04:15:35;;;;;;;45.90;23.77;;;5.50;75.00;;;;;;5008388;28;20056;-71
2022/01/04 04:18:01;;;;;;;50.63;24.92;;;5.40;75.00;;;;;;5025193;28;20120;-71
2022/01/04 04:20:27;;;;;;;47.22;25.92;;;5.40;75.00;;;;;;5010245;28;20033;-71
2022/01/04 04:22:53;;;;;;;54.53;25.70;;;5.40;74.90;;;;;;5024880;28;20030;-71
2022/01/04 04:25:20;;;;;;;46.65;22.83;;;5.40;75.00;;;;;;5025447;28;20436;-72
2022/01/04 04:27:46;;;;;;;;;;;5.40;75.00;;;;;;5042334;28;20034;-72
2022/01/04 04:30:12;;;;;;;48.90;23.10;;;5.40;74.80;;;;;;5009788;28;19925;-72
2022/01/04 04:32:38;;;;;;;50.22;24.17;;;5.40;74.00;;;;;;5009892;28;20049;-70
2022/01/04 04:35:05;;;;;;;54.00;25.25;;;5.40;74.50;;;;;;5041222;28;20422;-70
2022/01/04 04:37:31;;;;;;;56.33;26.55;;;5.40;74.40;;;;;;5008979;28;20048;-71
2022/01/04 04:39:57;;;;;;;54.33;28.75;;;5.40;74.60;;;;;;5009703;28;20068;-71
2022/01/04 04:42:24;;;;;;;54.92;28.35;;;5.50;74.70;;;;;;5041104;28;20041;-71
2022/01/04 04:44:50;;;;;;;60.38;29.60;;;5.50;74.70;;;;;;5041113;28;20031;-71
2022/01/04 04:47:16;;;;;;;56.88;28.45;;;5.40;74.60;;;;;;5041714;28;20513;-73
2022/01/04 04:49:42;;;;;;;56.80;27.25;;;5.40;74.60;;;;;;5009982;28;20422;-72
2022/01/04 04:52:08;;;;;;;52.65;27.67;;;5.50;74.70;;;;;;5041649;28;20036;-73
2022/01/04 04:54:34;;;;;;;71.03;36.95;;;5.50;74.70;;;;;;5008178;28;20049;-70
2022/01/04 04:57:00;;;;;;;52.05;26.67;;;5.50;74.70;;;;;;5041416;28;20038;-70
2022/01/04 04:59:26;;;;;;;51.20;27.45;;;5.60;74.60;;;;;;5041131;28;20034;-70
2022/01/04 05:01:52;;;;;;;51.40;27.00;;;5.60;74.40;;;;;;5041178;28;20125;-70
2022/01/04 05:04:19;;;;;;;47.65;25.10;;;5.60;74.50;;;;;;5009895;28;20522;-71
2022/01/04 05:06:46;;;;;;;47.78;26.45;;;5.60;74.40;;;;;;5041443;28;20411;-72
2022/01/04 05:09:12;;;;;;;48.20;25.02;;;5.70;74.30;;;;;;5040889;28;20041;-70
2022/01/04 05:11:38;;;;;;;45.42;24.77;;;5.70;74.60;;;;;;5009451;28;20526;-70
2022/01/04 05:14:05;;;;;;;52.10;25.60;;;5.70;74.60;;;;;;5040784;28;20376;-70
2022/01/04 05:16:31;;;;;;;47.20;23.75;;;5.70;74.60;;;;;;5008355;28;20038;-71
2022/01/04 05:18:57;;;;;;;43.50;22.65;;;5.70;74.60;;;;;;5008198;28;20049;-71
2022/01/04 05:21:23;;;;;;;42.90;23.95;;;5.70;74.60;;;;;;5024468;28;20120;-71
2022/01/04 05:23:50;;;;;;;43.17;23.67;;;5.70;74.70;;;;;;5010270;28;20038;-72
2022/01/04 05:26:16;;;;;;;42.05;22.52;;;5.70;74.10;;;;;;5013134;28;20033;-73
2022/01/04 05:28:45;;;;;;;41.72;22.20;;;5.80;73.90;;;;;;5045103;28;20053;-72
2022/01/04 05:31:13;;;;;;;46.33;22.92;;;5.80;74.60;;;;;;5044332;28;20380;-74
2022/01/04 05:33:39;;;;;;;43.88;23.27;;;5.80;74.20;;;;;;5044608;28;20041;-73
2022/01/04 05:36:05;;;;;;;44.60;23.13;;;5.90;74.50;;;;;;5011455;28;20036;-70
2022/01/04 05:38:31;;;;;;;41.53;20.00;;;5.90;74.50;;;;;;5012898;28;20122;-70
2022/01/04 05:40:58;;;;;;;40.60;21.92;;;5.90;73.80;;;;;;5012670;28;20030;-71
2022/01/04 05:43:24;;;;;;;;;;;5.90;73.90;;;;;;5012367;28;20030;-70
2022/01/04 05:45:51;;;;;;;56.08;25.42;;;5.90;74.60;;;;;;5044062;28;19921;-70
2022/01/04 05:48:20;;;;;;;48.88;24.83;;;5.90;74.40;;;;;;5027727;28;20105;-70
2022/01/04 05:50:47;;;;;;;53.50;26.65;;;5.90;74.40;;;;;;5011552;28;20030;-71
2022/01/04 05:53:13;;;;;;;38.75;20.45;;;6.00;74.30;;;;;;5044312;28;20387;-73
2022/01/04 05:55:39;;;;;;;;;;;6.00;74.40;;;;;;5044716;28;20033;-73
2022/01/04 05:58:06;;;;;;;41.60;21.40;;;6.00;74.30;;;;;;5012479;28;19925;-70
2022/01/04 06:00:32;;;;;;;39.95;20.25;;;6.00;74.30;;;;;;5044082;28;20038;-72
2022/01/04 06:03:01;;;;;;;36.88;19.15;;;6.00;74.30;;;;;;5044297;28;20395;-70
2022/01/04 06:05:28;;;;;;;40.38;22.02;;;6.10;74.40;;;;;;5027007;28;20034;-71
2022/01/04 06:07:54;;;;;;;40.17;21.75;;;6.10;74.40;;;;;;5027477;28;20396;-71
2022/01/04 06:10:22;;;;;;;50.17;25.10;;;6.10;74.60;;;;;;5012551;28;20037;-71
2022/01/04 06:15:16;;;;;;;51.67;25.63;;;6.10;74.60;;;;;;5012223;28;20399;-70
2022/01/04 06:17:47;;;;;;;42.50;22.13;;;6.10;74.60;;;;;;5044114;28;20526;-72
2022/01/04 06:20:16;;;;;;;46.53;23.65;;;6.20;74.60;;;;;;5043293;28;20049;-71
2022/01/04 06:22:43;;;;;;;42.60;22.15;;;6.20;74.80;;;;;;5027225;28;20407;-71
2022/01/04 06:25:15;;;;;;;40.47;19.08;;;6.20;75.10;;;;;;5043935;28;20403;-71
2022/01/04 06:28:01;;;;;;;31.85;17.60;;;6.10;75.10;;;;;;5043538;28;20038;-71
2022/01/04 06:30:27;;;;;;;31.35;18.05;;;6.10;75.40;;;;;;5042219;28;20045;-72
2022/01/04 06:32:53;;;;;;;39.00;19.90;;;6.20;75.50;;;;;;5010256;28;20573;-70
2022/01/04 06:35:19;;;;;;;34.75;18.92;;;6.20;75.50;;;;;;5010569;28;20038;-71
2022/01/04 06:37:46;;;;;;;;;;;6.20;75.60;;;;;;5012114;28;20037;-71
2022/01/04 06:40:13;;;;;;;36.20;18.77;;;6.20;75.40;;;;;;5043489;28;19928;-70
2022/01/04 06:42:40;;;;;;;44.08;19.83;;;6.20;75.10;;;;;;5011551;28;20050;-71
2022/01/04 06:45:07;;;;;;;49.63;24.10;;;6.20;74.70;;;;;;5043203;28;20442;-71
2022/01/04 06:47:33;;;;;;;31.67;16.75;;;6.30;74.90;;;;;;5011503;28;20108;-70
2022/01/04 06:49:59;;;;;;;32.72;16.67;;;6.30;75.60;;;;;;5011538;28;20137;-71
2022/01/04 06:52:25;;;;;;;32.08;16.35;;;6.30;75.70;;;;;;5011803;28;20044;-70
2022/01/04 06:54:51;;;;;;;30.08;15.25;;;6.30;75.70;;;;;;5042955;28;20073;-71
2022/01/04 06:57:17;;;;;;;30.90;15.70;;;6.40;75.70;;;;;;5011393;28;20042;-70
2022/01/04 06:59:43;;;;;;;31.17;16.40;;;6.30;75.90;;;;;;5026376;28;20096;-71
2022/01/04 07:02:10;;;;;;;34.83;16.92;;;6.40;75.90;;;;;;4992515;28;20503;-71
2022/01/04 07:04:36;;;;;;;34.88;16.67;;;6.40;75.80;;;;;;5011416;28;20064;-71
2022/01/04 07:07:02;;;;;;;12.57;7.03;;;6.50;75.90;;;;;;5011079;28;20038;-71
2022/01/04 07:09:29;;;;;;;7.00;3.45;;;6.50;76.10;;;;;;5010980;28;20083;-72
2022/01/04 07:11:55;;;;;;;7.50;3.22;;;6.90;78.70;;;;;;5011079;28;20075;-71
2022/01/04 07:14:21;;;;;;;6.82;2.45;;;7.20;80.10;;;;;;5042597;28;20033;-72
2022/01/04 07:16:47;;;;;;;10.77;3.53;;;7.50;80.20;;;;;;5011231;28;20038;-72
2022/01/04 07:19:15;;;;;;;6.70;2.88;;;7.80;80.70;;;;;;5011475;28;20060;-70
2022/01/04 07:21:41;;;;;;;10.32;3.55;;;8.00;81.10;;;;;;5025548;28;20149;-70
2022/01/04 07:24:07;;;;;;;8.82;3.75;;;8.10;80.50;;;;;;5042678;28;20543;-71
2022/01/04 07:26:33;;;;;;;7.85;3.00;;;8.30;81.60;;;;;;5042478;28;20065;-72
2022/01/04 07:28:59;;;;;;;7.70;3.63;;;8.40;81.70;;;;;;5042848;28;20037;-71
2022/01/04 07:31:25;;;;;;;8.32;2.78;;;8.60;81.50;;;;;;5011201;28;20042;-71
2022/01/04 07:33:52;;;;;;;7.80;3.50;;;8.70;81.60;;;;;;5025825;28;20407;-70
2022/01/04 07:36:18;;;;;;;11.90;4.00;;;8.80;81.60;;;;;;5010263;28;20491;-70
2022/01/04 07:38:44;;;;;;;10.13;3.22;;;8.90;81.60;;;;;;5042478;28;20049;-70
2022/01/04 07:41:11;;;;;;;8.82;3.35;;;8.90;81.30;;;;;;5010234;28;20038;-70
2022/01/04 07:43:39;;;;;;;8.15;3.25;;;9.00;81.30;;;;;;4992495;28;20601;-71
2022/01/04 07:46:05;;;;;;;9.57;3.72;;;9.00;81.00;;;;;;5009532;28;20046;-70
2022/01/04 07:48:32;;;;;;;6.40;2.17;;;9.10;80.50;;;;;;5025645;28;20076;-72
2022/01/04 07:50:59;;;;;;;;;;;9.20;80.80;;;;;;5026070;28;20386;-72
2022/01/04 07:53:26;;;;;;;;;;;9.30;80.00;;;;;;5010864;28;20333;-70
2022/01/04 07:55:52;;;;;;;6.97;2.88;;;9.40;80.30;;;;;;5009093;28;20004;-71
2022/01/04 07:58:18;;;;;;;12.88;6.57;;;9.40;79.60;;;;;;5025669;28;20057;-71
2022/01/04 08:00:44;;;;;;;10.75;5.82;;;9.50;80.10;;;;;;5042196;28;20123;-70
2022/01/04 08:03:11;;;;;;;8.43;3.20;;;9.60;80.00;;;;;;5041825;28;20042;-71
2022/01/04 08:05:37;;;;;;;9.95;4.22;;;9.60;79.90;;;;;;5041635;28;20038;-70
2022/01/04 08:08:04;;;;;;;9.45;3.72;;;9.60;79.30;;;;;;5010059;28;20044;-71
2022/01/04 08:10:30;;;;;;;8.60;3.03;;;9.70;78.90;;;;;;5042390;28;20075;-71
2022/01/04 08:12:57;;;;;;;13.82;3.47;;;9.80;78.80;;;;;;5041927;28;20063;-71
2022/01/04 08:15:23;;;;;;;4.88;1.95;;;9.90;78.50;;;;;;5041719;28;20454;-70
2022/01/04 08:17:49;;;;;;;;;;;10.00;77.50;;;;;;5010502;28;20127;-70
2022/01/04 08:20:17;;;;;;;4.60;1.90;;;10.10;77.10;;;;;;5009900;28;19921;-71
2022/01/04 08:22:43;;;;;;;7.05;2.63;;;10.20;76.70;;;;;;5008605;28;20030;-71
2022/01/04 08:25:11;;;;;;;6.93;2.50;;;10.30;75.90;;;;;;5008813;28;20380;-71
2022/01/04 08:27:39;;;;;;;4.82;2.08;;;10.50;76.10;;;;;;5009786;28;20451;-72
2022/01/04 08:30:09;;;;;;;5.65;2.38;;;10.60;75.50;;;;;;5041430;28;20041;-71
2022/01/04 08:32:35;;;;;;;6.50;2.45;;;10.70;75.20;;;;;;5041344;28;20079;-71
2022/01/04 08:35:02;;;;;;;3.92;1.58;;;10.80;74.90;;;;;;5024774;28;20044;-70
2022/01/04 08:37:29;;;;;;;5.97;2.70;;;10.80;73.60;;;;;;5042053;28;20153;-72
2022/01/04 08:39:56;;;;;;;6.57;2.00;;;11.00;73.50;;;;;;5041062;28;20065;-72
2022/01/04 08:42:22;;;;;;;5.80;2.42;;;11.00;73.20;;;;;;5041146;28;20037;-71
2022/01/04 08:44:50;;;;;;;5.28;1.80;;;11.10;73.00;;;;;;5041459;28;20038;-71
2022/01/04 08:47:16;;;;;;;6.68;2.58;;;11.10;72.80;;;;;;5009840;28;20041;-71
2022/01/04 08:49:42;;;;;;;6.22;2.58;;;11.20;72.80;;;;;;5041280;28;20037;-71
2022/01/04 08:52:09;;;;;;;;;;;11.20;71.90;;;;;;5042609;28;20038;-71
2022/01/04 08:54:36;;;;;;;5.88;2.30;;;11.30;72.40;;;;;;4991893;28;20008;-71
2022/01/04 08:57:03;;;;;;;4.93;1.67;;;11.40;71.70;;;;;;5009787;28;20038;-72
2022/01/04 08:59:30;;;;;;;5.82;2.40;;;11.50;70.80;;;;;;5026585;28;20050;-71
2022/01/04 09:01:56;;;;;;;5.75;2.03;;;11.60;70.80;;;;;;5043764;28;24111;-72
2022/01/04 09:04:23;;;;;;;;;;;11.60;70.60;;;;;;5046162;28;20038;-71
2022/01/04 09:06:49;;;;;;;6.60;2.55;;;11.70;70.10;;;;;;5013366;28;20320;-70
2022/01/04 09:09:16;;;;;;;6.55;2.20;;;11.80;69.60;;;;;;5045149;28;20058;-72
2022/01/04 09:11:43;;;;;;;6.13;2.85;;;11.70;69.80;;;;;;5044964;28;20041;-70
2022/01/04 09:19:23;;;;;;;;;;;11.90;69.60;;;;;;5041030;28;20050;-71
2022/01/04 09:21:50;;;;;;;6.22;2.30;;;11.90;69.10;;;;;;5061338;28;19925;-72
2022/01/04 09:24:16;;;;;;;5.53;2.08;;;11.90;69.50;;;;;;5028250;28;20038;-71
2022/01/04 09:26:42;;;;;;;;;;;12.00;69.40;;;;;;5013597;28;20428;-72
2022/01/04 09:29:09;;;;;;;7.75;2.45;;;12.00;69.30;;;;;;5011686;28;19932;-71
2022/01/04 09:31:35;;;;;;;7.10;2.60;;;12.00;69.30;;;;;;5045097;28;20050;-70
2022/01/04 09:34:04;;;;;;;5.82;2.30;;;12.10;68.90;;;;;;5044534;28;20188;-72
2022/01/04 09:36:51;;;;;;;4.90;2.10;;;12.10;68.70;;;;;;5011405;28;20052;-72
2022/01/04 09:39:21;;;;;;;7.80;2.28;;;12.20;68.10;;;;;;5012920;28;20038;-71
2022/01/04 09:41:49;;;;;;;4.68;1.70;;;12.20;67.60;;;;;;5027735;28;20109;-71
2022/01/04 09:44:16;;;;;;;5.30;2.05;;;12.20;67.30;;;;;;5028056;28;20118;-72
2022/01/04 09:46:43;;;;;;;5.95;1.80;;;12.30;67.00;;;;;;5011313;28;20045;-72
2022/01/04 09:49:11;;;;;;;4.97;1.98;;;12.30;66.20;;;;;;5028255;28;20052;-71
2022/01/04 09:51:40;;;;;;;4.55;1.63;;;12.30;66.00;;;;;;5044401;28;20042;-71
2022/01/04 09:54:07;;;;;;;5.28;1.90;;;12.40;65.70;;;;;;5044339;28;20041;-71
2022/01/04 09:56:34;;;;;;;5.32;1.85;;;12.40;65.10;;;;;;5012263;28;20150;-71
2022/01/04 09:59:00;;;;;;;9.30;2.17;;;12.50;65.40;;;;;;5044432;28;20046;-72
2022/01/04 10:01:37;;;;;;;6.35;1.83;;;12.40;64.50;;;;;;5044618;28;20080;-72
2022/01/04 10:04:05;;;;;;;5.82;2.03;;;12.40;65.30;;;;;;5043313;28;20503;-71
2022/01/04 10:06:32;;;;;;;5.13;1.70;;;12.40;65.20;;;;;;5044205;28;20133;-72
2022/01/04 10:09:18;;;;;;;3.67;1.40;;;12.40;64.90;;;;;;5012242;28;20495;-71
2022/01/04 10:14:52;;;;;;;6.68;2.70;;;12.40;64.80;;;;;;5038601;28;20491;-72
2022/01/04 10:17:37;;;;;;;6.25;2.33;;;12.30;65.20;;;;;;5044077;28;20034;-71
2022/01/04 10:20:04;;;;;;;7.15;2.97;;;12.20;65.40;;;;;;5043695;28;20046;-72
2022/01/04 10:22:35;;;;;;;6.75;2.47;;;12.20;65.10;;;;;;5012323;28;20085;-72
2022/01/04 10:25:01;;;;;;;8.63;2.20;;;12.30;65.00;;;;;;5026851;28;20034;-71
2022/01/04 10:27:49;;;;;;;6.38;1.80;;;12.30;65.00;;;;;;5011770;28;20042;-72
2022/01/04 10:30:21;;;;;;;;;;;12.30;64.80;;;;;;5012423;28;20084;-73
2022/01/04 10:33:07;;;;;;;5.40;1.85;;;12.30;64.60;;;;;;5011979;28;19925;-73
2022/01/04 10:35:45;;;;;;;5.03;1.80;;;12.30;64.50;;;;;;5043503;28;20041;-74
2022/01/04 10:38:33;;;;;;;5.65;2.10;;;12.30;64.30;;;;;;5043417;28;20101;-73
2022/01/04 10:41:01;;;;;;;7.15;2.20;;;12.30;64.40;;;;;;4997999;28;20458;-73
2022/01/04 10:43:49;;;;;;;6.50;2.30;;;12.30;64.40;;;;;;5012034;28;20044;-74
2022/01/04 10:46:35;;;;;;;;;;;12.30;64.30;;;;;;5012637;28;20038;-73
2022/01/04 10:49:17;;;;;;;6.50;2.10;;;12.30;64.40;;;;;;5043566;28;19917;-74
2022/01/04 10:51:45;;;;;;;4.75;1.80;;;12.30;64.50;;;;;;5011725;28;20042;-74
2022/01/04 10:54:18;;;;;;;5.65;2.22;;;12.30;64.40;;;;;;5043208;28;20120;-73
2022/01/04 10:56:46;;;;;;;6.93;2.80;;;12.40;64.30;;;;;;5043275;28;20116;-74
2022/01/04 10:59:13;;;;;;;7.18;3.20;;;12.40;64.50;;;;;;5010707;28;20092;-73
2022/01/04 11:01:43;;;;;;;7.00;2.63;;;12.40;64.40;;;;;;5009796;28;20336;-73
2022/01/04 11:04:27;;;;;;;8.40;2.83;;;12.50;64.60;;;;;;5043544;28;20022;-73
2022/01/04 11:07:12;;;;;;;7.03;3.17;;;12.50;64.70;;;;;;5011119;28;20420;-73
2022/01/04 11:09:38;;;;;;;11.60;4.82;;;12.60;64.80;;;;;;5025854;28;20391;-74
2022/01/04 11:12:06;;;;;;;8.32;3.92;;;12.60;64.60;;;;;;5026170;28;20038;-74
2022/01/04 11:14:32;;;;;;;7.88;3.70;;;12.70;64.50;;;;;;5011087;28;20050;-73
2022/01/04 11:16:58;;;;;;;;;;;12.70;63.90;;;;;;5043428;28;20054;-73
2022/01/04 11:19:24;;;;;;;5.38;2.00;;;12.70;63.60;;;;;;5043117;28;19917;-74
2022/01/04 11:21:51;;;;;;;6.20;2.35;;;12.80;64.10;;;;;;5042145;28;20049;-73
2022/01/04 11:24:17;;;;;;;6.18;2.03;;;12.80;63.80;;;;;;5042529;28;20137;-73
2022/01/04 11:26:47;;;;;;;4.82;2.30;;;12.80;63.80;;;;;;5025627;28;20449;-73
2022/01/04 11:29:16;;;;;;;8.05;2.67;;;12.80;63.40;;;;;;5009192;28;20038;-74
2022/01/04 11:32:19;;;;;;;6.15;2.38;;;12.80;63.70;;;;;;5025839;28;20033;-74
2022/01/04 11:35:24;;;;;;;15.68;3.22;;;12.90;64.00;;;;;;5042371;28;20418;-74
2022/01/04 11:37:53;;;;;;;6.15;2.22;;;12.90;64.00;;;;;;5010655;28;20437;-73
2022/01/04 11:40:56;;;;;;;7.00;2.63;;;12.90;64.00;;;;;;5026117;28;20094;-74
2022/01/04 11:43:41;;;;;;;11.13;3.63;;;12.90;64.00;;;;;;4994441;28;20064;-74
2022/01/04 11:46:07;;;;;;;11.55;4.43;;;12.90;64.10;;;;;;5042391;28;20080;-73
2022/01/04 11:49:05;;;;;;;14.65;3.38;;;13.00;63.90;;;;;;5010798;28;20056;-72
2022/01/04 11:51:31;;;;;;;10.05;3.05;;;13.00;63.60;;;;;;5010381;28;20064;-73
2022/01/04 11:54:35;;;;;;;7.20;3.50;;;13.10;63.60;;;;;;5010316;28;20042;-74
2022/01/04 11:57:20;;;;;;;5.68;2.50;;;13.10;63.50;;;;;;4994324;28;20041;-74
2022/01/04 11:59:59;;;;;;;7.57;3.25;;;13.20;63.30;;;;;;5010181;28;20434;-73
2022/01/04 12:03:18;;;;;;;9.80;3.88;;;13.30;62.80;;;;;;5025094;28;20068;-72
2022/01/04 12:06:05;;;;;;;7.10;3.60;;;13.50;62.60;;;;;;5010461;28;20141;-71
2022/01/04 12:08:51;;;;;;;10.43;2.75;;;13.80;61.20;;;;;;4992884;28;20049;-72
2022/01/04 12:11:38;;;;;;;6.63;2.53;;;13.80;61.60;;;;;;5042136;28;20038;-71
2022/01/04 12:14:04;;;;;;;6.22;2.50;;;13.90;60.60;;;;;;5041936;28;20038;-71
2022/01/04 12:16:43;;;;;;;8.85;3.10;;;13.90;59.80;;;;;;5042351;28;20022;-72
2022/01/04 12:19:11;;;;;;;7.18;2.78;;;13.90;60.30;;;;;;5026553;28;20041;-71
2022/01/04 12:22:16;;;;;;;3.28;1.23;;;13.90;59.80;;;;;;5041399;28;20069;-72
2022/01/04 12:24:48;;;;;;;8.38;3.55;;;13.90;59.40;;;;;;4994537;28;20046;-71
2022/01/04 12:27:15;;;;;;;4.80;1.50;;;13.90;59.70;;;;;;5040899;28;20034;-71
2022/01/04 12:29:41;;;;;;;6.13;2.50;;;14.00;59.60;;;;;;5041316;28;20046;-71
2022/01/04 12:32:21;;;;;;;6.13;2.20;;;14.10;59.10;;;;;;5008429;28;20034;-73
2022/01/04 12:35:08;;;;;;;7.13;2.78;;;14.10;58.70;;;;;;5009017;28;20116;-71
2022/01/04 12:37:36;;;;;;;8.77;3.15;;;14.10;58.10;;;;;;5010312;28;20030;-72
2022/01/04 12:40:03;;;;;;;5.63;1.92;;;14.10;58.50;;;;;;5009795;28;20034;-71
2022/01/04 12:42:29;;;;;;;5.15;2.03;;;14.10;57.80;;;;;;5008453;28;20529;-71
2022/01/04 12:44:58;;;;;;;3.63;1.30;;;14.20;58.00;;;;;;5041183;28;20049;-72
2022/01/04 12:47:26;;;;;;;4.90;1.85;;;14.10;57.80;;;;;;5009512;28;20162;-71
2022/01/04 12:49:53;;;;;;;5.75;1.90;;;14.20;57.80;;;;;;5041253;28;20555;-72
2022/01/04 12:52:21;;;;;;;7.65;2.22;;;14.10;57.90;;;;;;5042115;28;20527;-71
2022/01/04 12:54:48;;;;;;;2.80;1.17;;;14.20;57.30;;;;;;5041349;28;20069;-71
2022/01/04 12:57:35;;;;;;;5.68;1.33;;;14.10;57.20;;;;;;5041286;28;20042;-72
2022/01/04 13:00:02;;;;;;;4.85;1.40;;;14.10;57.50;;;;;;5024713;28;20053;-72
2022/01/04 13:02:31;;;;;;;6.32;2.17;;;14.10;57.00;;;;;;5008109;28;20092;-72
2022/01/04 13:05:18;;;;;;;6.75;2.92;;;14.10;57.50;;;;;;5041316;28;20561;-72
2022/01/04 13:07:45;;;;;;;3.03;1.13;;;14.10;57.40;;;;;;5009570;28;20026;-71
2022/01/04 13:10:14;;;;;;;8.43;1.88;;;14.20;57.00;;;;;;5041363;28;20493;-72